Time;durP1;ratioP1;P1;durP2;ratioP2;P2;SDS_P1;SDS_P2;PMS_P1;PMS_P2;Temp;Humidity;BMP_temperature;BMP_pressure;BME280_temperature;BME280_humidity;BME280_pressure;Samples;Min_cycle;Max_cycle;Signal;HPM_P1;HPM_P2
2021/12/05 00:21:43;;;;;;;7.50;3.60;;;18.20;48.90;;;;;;5078964;28;20216;-54
2021/12/05 00:24:13;;;;;;;4.75;3.38;;;18.20;49.00;;;;;;5113850;28;20174;-54
2021/12/05 00:26:41;;;;;;;5.35;3.47;;;18.20;49.00;;;;;;5113741;28;20178;-54
2021/12/05 00:29:29;;;;;;;7.63;3.95;;;18.20;48.80;;;;;;5112263;28;20312;-54
2021/12/05 00:40:43;;;;;;;7.10;3.35;;;18.00;49.00;;;;;;5179642;22;20233;-66
2021/12/05 00:43:28;;;;;;;10.10;4.15;;;18.10;49.20;;;;;;4989760;28;20683;-67
2021/12/05 00:48:55;;;;;;;8.73;3.50;;;18.00;49.50;;;;;;4990977;28;20265;-67
2021/12/05 01:02:56;;;;;;;5.32;3.10;;;17.90;49.30;;;;;;4989624;28;20181;-67
2021/12/05 01:05:38;;;;;;;5.15;3.17;;;17.80;49.20;;;;;;4989632;28;20202;-67
2021/12/05 01:11:15;;;;;;;6.90;3.30;;;17.80;49.20;;;;;;4988704;28;20224;-67
2021/12/05 01:13:55;;;;;;;5.22;3.25;;;17.80;49.30;;;;;;4989446;28;20686;-67
2021/12/05 01:16:26;;;;;;;4.13;2.63;;;17.80;51.70;;;;;;4989515;28;20209;-67
2021/12/05 01:18:55;;;;;;;5.22;3.20;;;17.80;52.10;;;;;;4989299;28;20197;-67
2021/12/05 01:21:24;;;;;;;4.93;3.20;;;17.80;52.60;;;;;;4989451;28;20205;-67
2021/12/05 01:23:58;;;;;;;4.55;2.97;;;17.80;52.30;;;;;;4989485;28;20211;-67
2021/12/05 01:26:28;;;;;;;6.50;3.05;;;17.80;52.10;;;;;;4989405;28;20730;-67
2021/12/05 01:29:07;;;;;;;5.72;3.20;;;17.70;51.80;;;;;;4989289;28;20220;-67
2021/12/05 01:31:45;;;;;;;5.85;3.20;;;17.70;51.60;;;;;;4989348;28;20235;-67
2021/12/05 01:34:29;;;;;;;5.60;3.17;;;17.70;51.20;;;;;;4989557;28;20292;-67
2021/12/05 01:37:11;;;;;;;5.40;3.00;;;17.70;51.20;;;;;;4989831;28;20198;-67
2021/12/05 01:43:04;;;;;;;3.60;2.80;;;17.70;51.00;;;;;;4989237;28;20185;-67
2021/12/05 01:57:08;;;;;;;5.22;2.70;;;17.60;50.80;;;;;;4989370;28;20240;-67
2021/12/05 02:10:53;;;;;;;3.10;2.53;;;17.50;50.20;;;;;;4991963;28;20221;-67
2021/12/05 02:16:24;;;;;;;4.70;2.65;;;17.50;50.20;;;;;;4992015;28;20198;-67
2021/12/05 02:30:25;;;;;;;6.18;2.58;;;17.40;49.90;;;;;;4992328;28;20221;-67
2021/12/05 02:33:16;;;;;;;4.05;2.50;;;17.40;50.00;;;;;;4993429;28;20736;-66
2021/12/05 02:36:19;;;;;;;3.03;2.20;;;17.40;50.20;;;;;;4991964;28;20186;-67
2021/12/05 02:41:35;;;;;;;3.15;2.35;;;17.30;49.90;;;;;;4991676;28;20284;-67
2021/12/05 02:44:06;;;;;;;3.80;2.65;;;17.30;50.40;;;;;;4991776;28;20205;-67
2021/12/05 02:46:33;;;;;;;3.67;2.33;;;17.30;49.90;;;;;;4992991;28;20178;-67
2021/12/05 02:49:04;;;;;;;4.53;2.53;;;17.20;49.80;;;;;;4991516;28;20248;-67
2021/12/05 02:51:33;;;;;;;5.03;2.38;;;17.30;49.90;;;;;;4991581;28;20727;-67
2021/12/05 02:54:06;;;;;;;2.60;2.38;;;17.20;49.80;;;;;;4991437;28;20230;-67
2021/12/05 02:56:38;;;;;;;3.78;2.50;;;17.20;49.80;;;;;;4991599;28;20277;-67
2021/12/05 02:59:18;;;;;;;4.75;2.78;;;17.20;49.90;;;;;;4991392;28;20639;-67
2021/12/05 03:01:49;;;;;;;3.45;2.22;;;17.10;50.00;;;;;;4991439;28;20242;-67
2021/12/05 03:04:16;;;;;;;3.70;2.30;;;17.10;50.00;;;;;;4991382;28;20208;-67
2021/12/05 03:06:50;;;;;;;4.63;2.50;;;17.10;49.80;;;;;;4991294;28;20661;-67
2021/12/05 03:09:20;;;;;;;4.22;2.42;;;17.10;50.00;;;;;;4991170;28;20708;-67
2021/12/05 03:11:48;;;;;;;4.53;2.42;;;17.10;49.90;;;;;;4991030;28;20198;-68
2021/12/05 03:14:15;;;;;;;2.38;2.17;;;17.10;50.00;;;;;;4992346;28;20198;-67
2021/12/05 03:16:43;;;;;;;2.42;2.05;;;17.00;49.70;;;;;;4991207;28;20205;-67
2021/12/05 03:19:12;;;;;;;3.30;2.30;;;17.00;49.90;;;;;;4990992;28;20223;-67
2021/12/05 03:21:39;;;;;;;3.30;2.35;;;17.10;49.90;;;;;;4991000;28;20204;-67
2021/12/05 03:24:06;;;;;;;3.33;2.30;;;17.10;49.90;;;;;;4990880;28;20288;-67
2021/12/05 03:26:37;;;;;;;2.63;1.83;;;17.00;49.80;;;;;;4990975;28;20205;-67
2021/12/05 03:29:05;;;;;;;2.83;2.20;;;17.00;49.90;;;;;;4990930;28;20278;-67
2021/12/05 03:31:32;;;;;;;3.47;2.40;;;17.00;49.70;;;;;;4990886;28;20713;-67
2021/12/05 03:34:00;;;;;;;3.50;2.35;;;17.00;49.80;;;;;;4990838;28;20241;-67
2021/12/05 03:36:29;;;;;;;3.40;2.17;;;17.00;49.70;;;;;;4990757;28;20670;-67
2021/12/05 03:38:57;;;;;;;3.08;2.22;;;17.00;49.70;;;;;;4990766;28;20221;-67
2021/12/05 03:41:24;;;;;;;2.95;2.17;;;17.00;49.90;;;;;;4990440;28;20267;-66
2021/12/05 03:43:54;;;;;;;3.63;2.30;;;16.90;49.70;;;;;;4990693;28;20229;-67
2021/12/05 03:46:22;;;;;;;3.58;2.30;;;16.90;49.50;;;;;;4990706;28;20717;-67
2021/12/05 03:48:50;;;;;;;3.40;2.08;;;16.90;49.60;;;;;;4990712;28;20288;-67
2021/12/05 03:51:19;;;;;;;2.25;1.90;;;16.90;49.60;;;;;;4990446;28;20302;-67
2021/12/05 03:53:49;;;;;;;3.88;2.08;;;16.90;50.20;;;;;;4990437;28;20693;-67
2021/12/05 03:56:17;;;;;;;2.35;1.90;;;16.90;49.50;;;;;;4991815;28;20218;-67
2021/12/05 03:58:44;;;;;;;2.80;2.22;;;16.90;49.60;;;;;;4991599;28;20189;-67
2021/12/05 04:01:13;;;;;;;2.88;2.25;;;16.90;49.50;;;;;;4990327;28;20296;-67
2021/12/05 04:03:42;;;;;;;2.95;2.08;;;16.80;49.40;;;;;;4991667;28;20189;-66
2021/12/05 04:06:10;;;;;;;3.42;2.28;;;16.80;50.00;;;;;;4990317;28;20198;-67
2021/12/05 04:08:39;;;;;;;3.22;2.47;;;16.80;49.10;;;;;;4990456;28;20216;-66
2021/12/05 04:11:10;;;;;;;2.92;2.15;;;16.80;49.10;;;;;;4990373;28;20193;-67
2021/12/05 04:13:40;;;;;;;2.40;2.10;;;16.80;49.10;;;;;;4990220;28;20647;-66
2021/12/05 04:16:08;;;;;;;2.40;1.80;;;16.80;48.90;;;;;;4990098;28;20205;-67
2021/12/05 04:18:38;;;;;;;1.88;1.77;;;16.80;49.00;;;;;;4990202;28;20251;-67
2021/12/05 04:21:05;;;;;;;2.83;1.80;;;16.80;48.70;;;;;;4989565;28;20243;-67
2021/12/05 04:23:33;;;;;;;2.63;1.90;;;16.80;48.50;;;;;;4990212;28;20198;-67
2021/12/05 04:26:01;;;;;;;2.45;1.77;;;16.80;48.30;;;;;;4990133;28;20284;-67
2021/12/05 04:28:29;;;;;;;2.45;2.00;;;16.80;48.30;;;;;;4990135;28;20198;-66
2021/12/05 04:30:56;;;;;;;3.10;1.90;;;16.80;48.20;;;;;;4990026;28;20217;-66
2021/12/05 04:33:24;;;;;;;3.80;2.20;;;16.90;48.10;;;;;;4990238;28;20224;-67
2021/12/05 04:35:52;;;;;;;2.42;2.05;;;16.90;48.20;;;;;;4991102;28;20280;-67
2021/12/05 04:38:20;;;;;;;2.30;2.10;;;16.90;47.80;;;;;;4990093;28;20197;-66
2021/12/05 04:40:47;;;;;;;2.72;1.80;;;16.90;47.80;;;;;;4989779;28;20257;-66
2021/12/05 04:43:15;;;;;;;2.03;1.83;;;16.90;47.80;;;;;;4989898;28;20646;-67
2021/12/05 04:45:43;;;;;;;2.25;1.92;;;16.90;47.80;;;;;;4989882;28;20228;-66
2021/12/05 04:48:09;;;;;;;3.05;1.80;;;16.90;47.70;;;;;;4990084;28;20206;-67
2021/12/05 04:50:37;;;;;;;2.78;2.08;;;17.00;47.60;;;;;;4989852;28;20217;-67
2021/12/05 04:53:05;;;;;;;2.15;1.90;;;17.00;47.80;;;;;;4989805;28;20221;-67
2021/12/05 04:55:33;;;;;;;1.83;1.73;;;17.00;47.60;;;;;;4989924;28;20630;-67
2021/12/05 04:58:04;;;;;;;1.80;1.70;;;17.00;47.50;;;;;;4989992;28;20193;-67
2021/12/05 05:00:34;;;;;;;1.90;1.70;;;17.10;47.40;;;;;;4990079;28;20267;-66
2021/12/05 05:03:01;;;;;;;2.38;1.67;;;17.10;47.20;;;;;;4990180;28;20197;-66
2021/12/05 05:05:30;;;;;;;1.75;1.65;;;17.10;47.00;;;;;;4989883;28;20201;-66
2021/12/05 05:07:57;;;;;;;2.88;1.75;;;17.10;47.10;;;;;;4991100;28;20201;-67
2021/12/05 05:10:26;;;;;;;2.55;1.55;;;17.10;47.20;;;;;;4989996;28;20221;-67
2021/12/05 05:12:53;;;;;;;3.00;1.90;;;17.10;47.30;;;;;;4990218;28;20217;-67
2021/12/05 05:15:22;;;;;;;2.13;1.90;;;17.20;47.30;;;;;;4989939;28;20683;-66
2021/12/05 05:17:50;;;;;;;1.77;1.60;;;17.20;47.30;;;;;;4989965;28;20197;-67
2021/12/05 05:20:21;;;;;;;2.60;1.83;;;17.20;47.30;;;;;;4992499;28;20209;-67
2021/12/05 05:23:02;;;;;;;2.75;1.80;;;17.20;47.40;;;;;;4990379;28;20190;-67
2021/12/05 05:39:38;;;;;;;1.73;1.60;;;17.30;46.70;;;;;;4996085;28;20576;-66
2021/12/05 05:42:39;;;;;;;1.70;1.60;;;17.20;46.90;;;;;;4993598;28;20216;-67
2021/12/05 05:45:23;;;;;;;2.83;1.90;;;17.30;46.80;;;;;;4993688;28;20193;-66
2021/12/05 05:48:27;;;;;;;1.88;1.70;;;17.20;46.70;;;;;;4993415;28;20277;-65
2021/12/05 05:50:55;;;;;;;2.33;1.70;;;17.30;46.60;;;;;;4993799;28;20720;-66
2021/12/05 05:53:22;;;;;;;1.70;1.60;;;17.30;46.50;;;;;;4993647;28;20213;-66
2021/12/05 05:55:49;;;;;;;1.80;1.70;;;17.30;46.40;;;;;;4994624;28;20675;-66
2021/12/05 05:58:21;;;;;;;3.05;1.70;;;17.30;46.40;;;;;;4993010;28;20190;-67
2021/12/05 06:03:29;;;;;;;2.05;1.60;;;17.30;46.30;;;;;;5095035;28;20588;-68
2021/12/05 06:06:01;;;;;;;2.40;1.80;;;17.30;46.20;;;;;;5096648;28;20228;-65
2021/12/05 06:08:29;;;;;;;1.60;1.50;;;17.30;46.30;;;;;;5078586;28;20642;-68
2021/12/05 06:10:57;;;;;;;1.80;1.70;;;17.30;46.20;;;;;;5078206;28;20198;-63
2021/12/05 06:13:26;;;;;;;2.50;1.80;;;17.30;46.00;;;;;;5077789;28;20271;-64
2021/12/05 06:15:53;;;;;;;2.55;1.80;;;17.40;46.10;;;;;;5078043;28;20197;-66
2021/12/05 06:18:20;;;;;;;2.25;1.70;;;17.30;46.00;;;;;;5078028;28;20198;-65
2021/12/05 06:20:47;;;;;;;1.90;1.67;;;17.30;45.90;;;;;;5078137;28;20289;-65
2021/12/05 06:23:14;;;;;;;2.17;1.80;;;17.30;46.00;;;;;;5078190;28;20277;-66
2021/12/05 06:25:42;;;;;;;1.63;1.50;;;17.30;45.90;;;;;;5078605;28;20208;-66
2021/12/05 06:28:13;;;;;;;1.95;1.60;;;17.30;46.00;;;;;;5078155;28;20202;-65
2021/12/05 06:30:48;;;;;;;2.42;1.88;;;17.40;46.20;;;;;;5077922;28;20194;-64
2021/12/05 06:41:58;;;;;;;2.38;1.73;;;17.40;45.90;;;;;;5077695;28;20228;-67
2021/12/05 06:47:12;;;;;;;2.00;1.60;;;17.40;45.90;;;;;;5077382;28;20696;-67
2021/12/05 06:49:39;;;;;;;2.85;1.70;;;17.40;46.00;;;;;;5077281;28;20194;-66
2021/12/05 06:52:07;;;;;;;4.03;1.60;;;17.40;46.30;;;;;;5095241;28;20280;-64
2021/12/05 06:54:34;;;;;;;1.73;1.50;;;17.30;46.00;;;;;;5077208;28;20218;-64
2021/12/05 06:57:01;;;;;;;1.95;1.70;;;17.30;45.90;;;;;;5077235;28;20658;-66
2021/12/05 06:59:29;;;;;;;1.92;1.60;;;17.40;46.00;;;;;;5076915;28;20259;-66
2021/12/05 07:01:56;;;;;;;1.80;1.70;;;17.30;45.80;;;;;;5076778;28;20232;-63
2021/12/05 07:04:48;;;;;;;1.73;1.55;;;17.40;45.90;;;;;;5076738;28;20578;-63
2021/12/05 07:07:20;;;;;;;2.58;1.70;;;17.30;45.80;;;;;;5077024;28;20194;-64
2021/12/05 07:09:48;;;;;;;2.78;1.70;;;17.30;45.70;;;;;;5094779;28;20642;-65
2021/12/05 07:12:45;;;;;;;1.60;1.45;;;17.40;45.90;;;;;;5076476;28;20221;-67
2021/12/05 07:15:14;;;;;;;1.85;1.75;;;17.40;45.90;;;;;;5076418;28;20214;-64
2021/12/05 07:20:40;;;;;;;1.67;1.33;;;17.40;45.80;;;;;;5076464;28;20255;-63
2021/12/05 07:23:18;;;;;;;2.30;1.60;;;17.40;45.80;;;;;;5076322;28;20225;-67
2021/12/05 07:25:50;;;;;;;1.70;1.60;;;17.40;45.60;;;;;;5076420;28;20202;-65
2021/12/05 07:42:05;;;;;;;2.90;1.80;;;17.30;45.80;;;;;;5075924;28;20229;-67
2021/12/05 07:44:33;;;;;;;2.10;1.90;;;17.30;45.70;;;;;;5076484;28;20209;-65
2021/12/05 07:47:01;;;;;;;2.00;1.75;;;17.30;45.70;;;;;;5076333;28;20190;-66
2021/12/05 07:49:28;;;;;;;2.00;1.60;;;17.40;45.50;;;;;;5093873;28;20642;-66
2021/12/05 07:51:56;;;;;;;1.70;1.60;;;17.40;45.60;;;;;;5075831;28;20214;-66
2021/12/05 07:54:32;;;;;;;2.80;1.60;;;17.40;45.70;;;;;;5093858;28;20694;-64
2021/12/05 07:57:10;;;;;;;1.60;1.50;;;17.40;45.60;;;;;;5074865;28;20213;-66
2021/12/05 07:59:51;;;;;;;2.15;1.60;;;17.40;45.60;;;;;;5093833;28;20191;-65
2021/12/05 08:16:00;;;;;;;1.58;1.48;;;17.40;45.20;;;;;;5075492;28;20190;-66
2021/12/05 08:18:28;;;;;;;1.63;1.52;;;17.50;45.50;;;;;;5075349;28;20225;-67
2021/12/05 08:20:55;;;;;;;1.50;1.40;;;17.50;45.30;;;;;;5075156;28;20217;-64
2021/12/05 08:23:23;;;;;;;2.08;1.70;;;17.50;45.20;;;;;;5075481;28;20220;-64
2021/12/05 08:25:56;;;;;;;2.00;1.80;;;17.50;45.20;;;;;;5075067;28;20212;-65
2021/12/05 08:28:37;;;;;;;2.78;1.80;;;17.50;45.30;;;;;;5093320;28;20232;-63
2021/12/05 08:31:12;;;;;;;2.10;1.80;;;17.50;45.20;;;;;;5075647;28;20276;-66
2021/12/05 08:33:51;;;;;;;1.70;1.60;;;17.50;45.00;;;;;;5074954;28;20206;-63
2021/12/05 08:36:54;;;;;;;1.73;1.63;;;17.50;45.10;;;;;;5075175;28;20633;-63
2021/12/05 09:51:56;;;;;;;1.52;1.42;;;18.00;44.20;;;;;;5074400;28;20229;-66
2021/12/05 10:02:44;;;;;;;1.88;1.60;;;18.10;44.00;;;;;;5074401;28;20593;-68
2021/12/05 10:10:51;;;;;;;1.95;1.70;;;18.20;43.90;;;;;;5074302;28;20186;-67
2021/12/05 10:13:26;;;;;;;2.40;1.60;;;18.20;43.50;;;;;;5092605;28;20179;-66
2021/12/05 10:16:07;;;;;;;2.28;1.98;;;18.30;43.70;;;;;;5092371;28;20178;-66
2021/12/05 10:19:09;;;;;;;1.70;1.60;;;18.30;44.00;;;;;;5074267;28;20191;-66
2021/12/05 10:27:27;;;;;;;2.83;1.85;;;18.40;44.50;;;;;;5078646;28;20541;-64
2021/12/05 10:35:54;;;;;;;2.60;1.55;;;18.60;45.90;;;;;;5077681;28;20206;-64
2021/12/05 10:38:23;;;;;;;2.17;1.67;;;18.60;46.00;;;;;;5078215;28;20197;-64
2021/12/05 10:40:59;;;;;;;2.75;1.77;;;18.70;45.40;;;;;;5077908;28;20243;-63
2021/12/05 10:43:27;;;;;;;3.60;1.73;;;18.70;45.10;;;;;;5095900;28;20673;-64
2021/12/05 10:45:56;;;;;;;3.92;1.55;;;18.80;45.40;;;;;;5081747;28;20243;-64
2021/12/05 10:48:25;;;;;;;3.20;1.65;;;18.80;45.30;;;;;;5077675;28;20244;-64
2021/12/05 10:50:55;;;;;;;3.10;1.63;;;18.80;45.30;;;;;;5077411;28;20198;-64
2021/12/05 10:53:34;;;;;;;1245.97;711.80;;;18.90;45.70;;;;;;5077164;28;20581;-64
2021/12/05 10:56:20;;;;;;;385.25;274.48;;;18.90;48.50;;;;;;5095560;28;20180;-66
2021/12/05 10:58:53;;;;;;;243.75;172.88;;;18.90;50.00;;;;;;5077742;28;20280;-64
2021/12/05 11:01:32;;;;;;;209.68;144.27;;;18.90;49.40;;;;;;5077418;28;20217;-62
2021/12/05 11:04:02;;;;;;;202.05;136.70;;;18.90;49.50;;;;;;5077168;28;20186;-65
2021/12/05 11:06:39;;;;;;;178.32;116.18;;;18.90;49.40;;;;;;5077099;28;20293;-65
2021/12/05 11:09:08;;;;;;;174.10;120.97;;;19.00;49.00;;;;;;5076824;28;20197;-65
2021/12/05 11:11:37;;;;;;;187.00;116.70;;;19.00;48.70;;;;;;5077014;28;20214;-65
2021/12/05 11:14:04;;;;;;;171.20;115.05;;;19.10;49.10;;;;;;5076789;28;20305;-65
2021/12/05 11:16:50;;;;;;;173.60;120.32;;;19.10;48.90;;;;;;5095049;28;20535;-65
2021/12/05 11:19:22;;;;;;;162.27;110.75;;;19.10;48.70;;;;;;5076788;28;20201;-65
2021/12/05 11:21:54;;;;;;;160.40;109.82;;;19.10;48.00;;;;;;5076705;28;20217;-64
2021/12/05 11:24:24;;;;;;;149.63;102.65;;;19.10;48.40;;;;;;5076898;28;20653;-66
2021/12/05 11:27:24;;;;;;;151.55;107.18;;;19.10;47.90;;;;;;5076658;28;20210;-66
2021/12/05 11:29:59;;;;;;;143.25;101.70;;;19.20;48.00;;;;;;5076573;28;20209;-64
2021/12/05 11:32:33;;;;;;;154.85;103.20;;;19.20;48.30;;;;;;5076569;28;20217;-65
2021/12/05 11:35:09;;;;;;;142.35;97.10;;;19.20;48.10;;;;;;5076666;28;20214;-65
2021/12/05 11:37:53;;;;;;;145.27;95.95;;;19.30;48.10;;;;;;5076581;28;20209;-63
2021/12/05 11:40:20;;;;;;;142.82;97.05;;;19.30;48.00;;;;;;5076629;28;20194;-63
2021/12/05 11:42:55;;;;;;;132.57;92.93;;;19.30;48.20;;;;;;5094552;28;20202;-65
2021/12/05 11:45:22;;;;;;;131.30;90.13;;;19.30;47.90;;;;;;5076530;28;20204;-64
2021/12/05 11:47:51;;;;;;;129.23;93.68;;;19.40;47.80;;;;;;5094235;28;20192;-65
2021/12/05 11:50:19;;;;;;;107.55;73.25;;;19.40;48.10;;;;;;5079494;28;20251;-65
2021/12/05 11:52:49;;;;;;;113.53;76.38;;;19.40;47.20;;;;;;5094766;28;20210;-65
2021/12/05 11:55:29;;;;;;;119.32;82.03;;;19.40;47.60;;;;;;5094567;28;20301;-64
2021/12/05 11:57:56;;;;;;;119.32;79.85;;;19.40;47.50;;;;;;5094598;28;20182;-66
2021/12/05 12:00:24;;;;;;;106.50;77.10;;;19.40;47.60;;;;;;5076608;28;20197;-64
2021/12/05 12:02:51;;;;;;;105.35;70.53;;;19.40;47.50;;;;;;5094680;28;20305;-64
2021/12/05 12:05:20;;;;;;;128.23;86.72;;;19.40;47.10;;;;;;5094600;28;20186;-67
2021/12/05 12:07:50;;;;;;;99.97;67.80;;;19.50;48.50;;;;;;5094418;28;20190;-64
2021/12/05 12:10:18;;;;;;;100.10;69.78;;;19.50;47.40;;;;;;5075998;28;20263;-63
2021/12/05 12:12:46;;;;;;;95.45;67.05;;;19.50;48.00;;;;;;5076138;28;20221;-63
2021/12/05 12:15:14;;;;;;;99.45;69.40;;;19.50;47.50;;;;;;5075796;28;20240;-64
2021/12/05 12:17:41;;;;;;;94.70;65.15;;;19.50;47.60;;;;;;5076645;28;20228;-65
2021/12/05 12:20:12;;;;;;;86.35;64.55;;;19.50;47.40;;;;;;5075807;28;20204;-65
2021/12/05 12:22:39;;;;;;;90.10;61.67;;;19.50;47.40;;;;;;5075498;28;20232;-65
2021/12/05 12:25:11;;;;;;;90.22;60.95;;;19.60;47.20;;;;;;5075777;28;20237;-63
2021/12/05 12:27:38;;;;;;;92.18;61.42;;;19.60;47.40;;;;;;5101152;22;20220;-66
2021/12/05 12:30:08;;;;;;;93.97;61.92;;;19.60;47.20;;;;;;5115527;28;20174;-66
2021/12/05 12:35:18;;;;;;;115.57;77.38;;;19.70;47.30;;;;;;5112711;28;20245;-67
2021/12/05 12:37:57;;;;;;;108.35;71.70;;;19.70;47.70;;;;;;5114544;28;20209;-67
2021/12/05 12:40:43;;;;;;;99.72;69.65;;;19.80;47.10;;;;;;5114629;28;20573;-66
2021/12/05 12:43:12;;;;;;;95.55;65.30;;;19.80;47.40;;;;;;5097434;28;20201;-67
2021/12/05 12:45:40;;;;;;;81.82;54.53;;;19.80;46.80;;;;;;5096196;28;20201;-67
2021/12/05 12:48:11;;;;;;;75.60;50.00;;;19.90;45.70;;;;;;5115010;28;20684;-67
2021/12/05 12:50:41;;;;;;;64.80;45.20;;;19.80;45.40;;;;;;5096439;28;20193;-67
2021/12/05 12:53:14;;;;;;;66.32;45.30;;;19.80;45.10;;;;;;5096321;28;20204;-67
2021/12/05 12:55:44;;;;;;;67.47;41.97;;;19.80;44.90;;;;;;5096373;28;20217;-68
2021/12/05 12:58:13;;;;;;;55.63;38.40;;;19.80;44.80;;;;;;5096056;28;20231;-67
2021/12/05 13:00:43;;;;;;;52.00;36.28;;;19.80;44.70;;;;;;5114075;28;20181;-67
2021/12/05 13:03:28;;;;;;;49.25;34.55;;;19.70;44.60;;;;;;5208919;22;20233;-67
2021/12/05 13:11:53;;;;;;;40.50;28.15;;;19.60;45.00;;;;;;5075930;28;20200;-65
2021/12/05 13:14:20;;;;;;;43.00;28.88;;;19.60;44.60;;;;;;5075930;28;20319;-67
2021/12/05 13:16:48;;;;;;;44.47;28.00;;;19.60;44.80;;;;;;5094137;28;20190;-67
2021/12/05 13:19:18;;;;;;;42.35;26.92;;;19.60;44.30;;;;;;5076034;28;20221;-67
2021/12/05 13:21:46;;;;;;;35.45;25.15;;;19.60;44.20;;;;;;5075781;28;20205;-67
2021/12/05 13:24:25;;;;;;;32.80;22.63;;;19.60;44.20;;;;;;5076114;28;20196;-67
2021/12/05 13:27:00;;;;;;;34.65;22.67;;;19.60;44.00;;;;;;5095141;28;20205;-67
2021/12/05 13:29:27;;;;;;;34.45;22.08;;;19.60;44.00;;;;;;5076527;28;20209;-67
2021/12/05 13:31:56;;;;;;;33.50;20.80;;;19.60;43.70;;;;;;5075768;28;20272;-67
2021/12/05 13:34:48;;;;;;;33.33;21.17;;;19.60;44.00;;;;;;5076025;28;20194;-65
2021/12/05 13:37:36;;;;;;;27.83;18.75;;;19.60;43.80;;;;;;5072151;28;20279;-67
2021/12/05 13:40:12;;;;;;;28.23;18.35;;;19.60;43.70;;;;;;5075463;28;20548;-67
2021/12/05 13:42:46;;;;;;;28.55;18.25;;;19.60;44.00;;;;;;5093847;28;20257;-67
2021/12/05 13:45:39;;;;;;;23.35;16.23;;;19.60;43.80;;;;;;5075627;28;20314;-67
2021/12/05 13:48:13;;;;;;;22.73;16.10;;;19.60;43.70;;;;;;5093774;28;20224;-66
2021/12/05 13:50:45;;;;;;;23.38;16.80;;;19.60;44.30;;;;;;5075610;28;20333;-66
2021/12/05 13:53:24;;;;;;;25.33;15.32;;;19.60;43.70;;;;;;5075058;28;20293;-65
2021/12/05 13:56:03;;;;;;;23.17;15.52;;;19.60;43.40;;;;;;5078928;28;20236;-66
2021/12/05 13:58:43;;;;;;;22.65;14.05;;;19.60;43.50;;;;;;5078925;28;20233;-66
2021/12/05 14:01:12;;;;;;;19.75;13.63;;;19.60;43.30;;;;;;5078859;28;20625;-66
2021/12/05 14:03:50;;;;;;;19.45;13.27;;;19.60;43.30;;;;;;5078999;28;20210;-67
2021/12/05 14:06:39;;;;;;;16.70;12.68;;;19.60;43.40;;;;;;5098154;28;20638;-66
2021/12/05 14:09:12;;;;;;;19.75;12.70;;;19.60;43.50;;;;;;5095447;28;20301;-67
2021/12/05 14:11:44;;;;;;;20.20;12.77;;;19.60;43.30;;;;;;5079300;28;20665;-66
2021/12/05 14:14:13;;;;;;;17.50;11.70;;;19.60;43.50;;;;;;5106578;22;20221;-66
2021/12/05 14:16:41;;;;;;;19.33;12.45;;;19.60;43.10;;;;;;5077657;28;20286;-67
2021/12/05 14:19:10;;;;;;;17.67;11.65;;;19.60;43.50;;;;;;5078676;28;20222;-67
2021/12/05 14:21:40;;;;;;;19.67;12.02;;;19.60;43.60;;;;;;5078641;28;20258;-69
2021/12/05 14:24:07;;;;;;;16.42;10.82;;;19.50;43.80;;;;;;5132523;22;21712;-66
2021/12/05 14:26:38;;;;;;;14.27;9.57;;;19.50;43.70;;;;;;5113900;22;20226;-66
2021/12/05 14:29:06;;;;;;;14.63;9.50;;;19.40;44.50;;;;;;5115098;22;20233;-67
2021/12/05 14:36:44;;;;;;;12.60;8.05;;;19.40;43.40;;;;;;5053147;28;20211;-66
2021/12/05 14:39:16;;;;;;;12.60;8.25;;;19.40;43.20;;;;;;5072326;28;20225;-68
2021/12/05 14:41:43;;;;;;;9.80;7.70;;;19.40;43.10;;;;;;5058957;28;20241;-67
2021/12/05 14:44:10;;;;;;;11.70;7.85;;;19.40;43.10;;;;;;5076983;28;20672;-66
2021/12/05 14:46:49;;;;;;;12.35;7.22;;;19.30;42.90;;;;;;5058683;28;20207;-69
2021/12/05 14:49:16;;;;;;;13.18;7.70;;;19.40;43.10;;;;;;5058674;28;20298;-67
2021/12/05 14:51:45;;;;;;;9.48;6.60;;;19.40;42.90;;;;;;5058969;28;20202;-65
2021/12/05 14:54:17;;;;;;;10.57;6.68;;;19.30;42.80;;;;;;5076440;28;20260;-67
2021/12/05 14:56:44;;;;;;;11.18;6.65;;;19.40;42.80;;;;;;5058457;28;20217;-67
2021/12/05 14:59:13;;;;;;;9.20;5.93;;;19.30;42.80;;;;;;5058201;28;20687;-67
2021/12/05 15:01:41;;;;;;;10.73;6.50;;;19.30;42.80;;;;;;5058629;28;20293;-67
2021/12/05 15:04:09;;;;;;;9.43;6.07;;;19.30;42.70;;;;;;5058358;28;20195;-65
2021/12/05 15:06:39;;;;;;;9.48;5.63;;;19.30;42.70;;;;;;5058527;28;20198;-66
2021/12/05 15:09:17;;;;;;;10.25;6.03;;;19.30;43.00;;;;;;5058871;28;20295;-68
2021/12/05 15:11:50;;;;;;;7.68;5.78;;;19.30;43.10;;;;;;5058354;28;20213;-66
2021/12/05 15:14:17;;;;;;;9.90;6.30;;;19.30;43.30;;;;;;5076363;28;20186;-66
2021/12/05 15:21:54;;;;;;;8.15;5.93;;;19.20;43.90;;;;;;5053259;28;20668;-52
2021/12/05 15:24:25;;;;;;;7.75;5.50;;;19.20;44.00;;;;;;5036819;28;20253;-53
2021/12/05 15:26:53;;;;;;;9.45;6.00;;;19.20;44.20;;;;;;5055018;28;20176;-53
2021/12/05 15:29:20;;;;;;;10.27;6.35;;;19.20;44.30;;;;;;5054510;28;20718;-53
2021/12/05 15:31:48;;;;;;;11.82;5.93;;;19.10;44.70;;;;;;5054873;28;20613;-53
2021/12/05 15:34:23;;;;;;;8.32;5.70;;;19.10;45.40;;;;;;5054352;28;20540;-54
2021/12/05 15:36:50;;;;;;;8.75;5.50;;;19.10;44.80;;;;;;5054833;28;20265;-53
2021/12/05 15:39:19;;;;;;;7.82;5.85;;;19.10;44.60;;;;;;5054531;28;20218;-53
2021/12/05 15:41:49;;;;;;;7.20;5.25;;;19.10;45.10;;;;;;5054752;28;20196;-53
2021/12/05 15:44:32;;;;;;;6.72;4.90;;;19.10;45.10;;;;;;5054726;28;20233;-53
2021/12/05 15:47:04;;;;;;;7.60;4.90;;;19.10;45.00;;;;;;5054861;28;20590;-53
2021/12/05 15:49:53;;;;;;;7.82;4.88;;;19.10;45.10;;;;;;5055180;28;20208;-53
2021/12/05 15:52:22;;;;;;;7.82;5.10;;;19.10;45.10;;;;;;5037630;28;20241;-53
2021/12/05 15:54:49;;;;;;;7.25;5.15;;;19.10;45.90;;;;;;5055301;28;20258;-53
2021/12/05 15:57:23;;;;;;;7.35;4.90;;;19.10;45.30;;;;;;5161563;22;20214;-58
2021/12/05 15:59:50;;;;;;;6.20;4.50;;;19.10;45.40;;;;;;5074262;28;20260;-57
2021/12/05 16:02:18;;;;;;;6.60;4.68;;;19.10;46.10;;;;;;5056090;28;20624;-56
2021/12/05 16:04:45;;;;;;;7.47;4.55;;;19.10;46.10;;;;;;5074168;28;20206;-57
2021/12/05 16:07:12;;;;;;;6.22;4.57;;;19.10;45.80;;;;;;5056053;28;20245;-56
2021/12/05 16:09:41;;;;;;;6.60;4.45;;;19.00;45.80;;;;;;5073706;28;20261;-56
2021/12/05 16:12:10;;;;;;;8.27;4.53;;;19.00;45.70;;;;;;5055887;28;20195;-55
2021/12/05 16:14:42;;;;;;;8.48;6.07;;;19.00;45.70;;;;;;5073828;28;20187;-57
2021/12/05 16:17:29;;;;;;;9.35;6.28;;;19.00;45.70;;;;;;5073142;28;20254;-57
2021/12/05 16:20:16;;;;;;;6.97;5.45;;;19.00;46.00;;;;;;5052848;28;20286;-57
2021/12/05 16:23:17;;;;;;;9.52;6.10;;;19.00;46.00;;;;;;5075566;28;20639;-57
2021/12/05 16:25:47;;;;;;;6.88;4.97;;;19.00;46.10;;;;;;5053449;28;20219;-62
2021/12/05 16:28:14;;;;;;;8.38;5.18;;;18.90;46.20;;;;;;5074667;28;20776;-58
2021/12/05 16:30:45;;;;;;;8.50;4.65;;;19.00;46.20;;;;;;5075026;28;20191;-57
2021/12/05 16:33:13;;;;;;;6.45;4.60;;;18.90;46.20;;;;;;5074915;28;20237;-57
2021/12/05 16:35:43;;;;;;;7.80;4.75;;;18.90;46.10;;;;;;5056955;28;20230;-57
2021/12/05 16:38:25;;;;;;;6.50;5.10;;;18.90;46.20;;;;;;5075029;28;20218;-58
2021/12/05 16:41:01;;;;;;;7.53;5.07;;;18.90;46.20;;;;;;5057272;28;20710;-57
2021/12/05 16:43:30;;;;;;;5.35;4.10;;;18.90;46.20;;;;;;5057514;28;20222;-58
2021/12/05 16:46:06;;;;;;;7.13;4.70;;;18.90;46.10;;;;;;5057302;28;20191;-57
2021/12/05 16:48:35;;;;;;;5.97;4.50;;;18.90;46.20;;;;;;5074839;28;20262;-57
2021/12/05 16:51:22;;;;;;;6.28;4.35;;;18.90;46.20;;;;;;5075070;28;20187;-57
2021/12/05 16:53:51;;;;;;;5.63;3.97;;;18.90;46.40;;;;;;5056959;28;20559;-57
2021/12/05 16:56:40;;;;;;;7.68;4.68;;;18.90;46.30;;;;;;5074967;28;20214;-61
2021/12/05 16:59:09;;;;;;;4.63;4.15;;;18.90;46.20;;;;;;5075437;28;20187;-58
2021/12/05 17:01:37;;;;;;;5.85;4.20;;;18.90;45.70;;;;;;5057302;28;20195;-58
2021/12/05 17:04:04;;;;;;;6.70;4.82;;;18.90;45.50;;;;;;5075103;28;20540;-59
2021/12/05 17:06:46;;;;;;;6.03;4.15;;;18.90;45.20;;;;;;5074964;28;20179;-59
2021/12/05 17:09:14;;;;;;;7.35;4.43;;;18.90;45.00;;;;;;5057673;28;20617;-58
2021/12/05 17:11:41;;;;;;;5.97;4.35;;;18.90;44.90;;;;;;5057028;28;20222;-58
2021/12/05 17:14:08;;;;;;;5.32;4.20;;;18.90;44.90;;;;;;5075818;28;20282;-59
2021/12/05 17:16:41;;;;;;;6.65;4.38;;;18.90;44.90;;;;;;5061882;28;20690;-58
2021/12/05 17:19:10;;;;;;;7.10;4.20;;;18.90;44.80;;;;;;5075689;28;20179;-58
2021/12/05 17:21:40;;;;;;;5.57;4.28;;;18.90;44.90;;;;;;5075949;28;20182;-58
2021/12/05 17:24:08;;;;;;;5.55;4.25;;;18.90;45.10;;;;;;5057773;28;20233;-59
2021/12/05 17:26:37;;;;;;;5.00;3.67;;;18.80;45.00;;;;;;5075400;28;20202;-59
2021/12/05 17:29:07;;;;;;;6.82;4.72;;;18.80;45.30;;;;;;5059374;28;20229;-58
2021/12/05 17:31:38;;;;;;;6.38;4.30;;;18.80;45.50;;;;;;5080745;28;20640;-58